sensor_id;sensor_type;location;lat;lon;timestamp;P1;durP1;ratioP1;P2;durP2;ratioP2
23990;SDS011;12205;50.600;4.608;2023-11-21T00:00:17;39.78;;;10.48;;
23990;SDS011;12205;50.600;4.608;2023-11-21T00:02:45;45.92;;;10.48;;
23990;SDS011;12205;50.600;4.608;2023-11-21T00:05:13;34.40;;;10.82;;
23990;SDS011;12205;50.600;4.608;2023-11-21T00:07:41;39.58;;;10.88;;
23990;SDS011;12205;50.600;4.608;2023-11-21T00:10:09;33.00;;;10.05;;
23990;SDS011;12205;50.600;4.608;2023-11-21T00:12:40;32.45;;;9.75;;
23990;SDS011;12205;50.600;4.608;2023-11-21T00:15:08;33.28;;;9.90;;
23990;SDS011;12205;50.600;4.608;2023-11-21T00:17:37;35.03;;;9.70;;
23990;SDS011;12205;50.600;4.608;2023-11-21T00:20:05;36.78;;;11.10;;
23990;SDS011;12205;50.600;4.608;2023-11-21T00:22:33;39.60;;;10.65;;
23990;SDS011;12205;50.600;4.608;2023-11-21T00:25:01;38.38;;;11.02;;
23990;SDS011;12205;50.600;4.608;2023-11-21T00:27:29;36.30;;;10.27;;
23990;SDS011;12205;50.600;4.608;2023-11-21T00:30:01;36.45;;;10.30;;
23990;SDS011;12205;50.600;4.608;2023-11-21T00:32:30;39.00;;;10.90;;
23990;SDS011;12205;50.600;4.608;2023-11-21T00:34:57;33.78;;;9.63;;
23990;SDS011;12205;50.600;4.608;2023-11-21T00:37:27;37.95;;;11.30;;
23990;SDS011;12205;50.600;4.608;2023-11-21T00:39:56;38.40;;;10.27;;
23990;SDS011;12205;50.600;4.608;2023-11-21T00:42:23;40.88;;;11.13;;
23990;SDS011;12205;50.600;4.608;2023-11-21T00:44:51;31.88;;;9.52;;
23990;SDS011;12205;50.600;4.608;2023-11-21T00:47:19;36.22;;;10.10;;
23990;SDS011;12205;50.600;4.608;2023-11-21T00:49:47;38.60;;;10.55;;
23990;SDS011;12205;50.600;4.608;2023-11-21T00:52:15;37.08;;;10.07;;
23990;SDS011;12205;50.600;4.608;2023-11-21T00:54:42;35.85;;;10.75;;
23990;SDS011;12205;50.600;4.608;2023-11-21T00:57:10;36.63;;;11.40;;
23990;SDS011;12205;50.600;4.608;2023-11-21T00:59:37;34.53;;;10.55;;
23990;SDS011;12205;50.600;4.608;2023-11-21T01:02:06;40.72;;;10.93;;
23990;SDS011;12205;50.600;4.608;2023-11-21T01:04:37;36.22;;;10.70;;
23990;SDS011;12205;50.600;4.608;2023-11-21T01:07:04;34.05;;;11.80;;
23990;SDS011;12205;50.600;4.608;2023-11-21T01:09:34;39.70;;;10.27;;
23990;SDS011;12205;50.600;4.608;2023-11-21T01:12:02;36.13;;;10.60;;
23990;SDS011;12205;50.600;4.608;2023-11-21T01:14:30;38.72;;;10.82;;
23990;SDS011;12205;50.600;4.608;2023-11-21T01:16:57;41.58;;;10.75;;
23990;SDS011;12205;50.600;4.608;2023-11-21T01:19:24;34.58;;;11.15;;
23990;SDS011;12205;50.600;4.608;2023-11-21T01:21:53;29.60;;;10.18;;
23990;SDS011;12205;50.600;4.608;2023-11-21T01:24:20;29.85;;;9.55;;
23990;SDS011;12205;50.600;4.608;2023-11-21T01:26:47;30.80;;;9.48;;
23990;SDS011;12205;50.600;4.608;2023-11-21T01:29:14;41.55;;;10.88;;
23990;SDS011;12205;50.600;4.608;2023-11-21T01:31:41;35.85;;;11.45;;
23990;SDS011;12205;50.600;4.608;2023-11-21T01:34:08;38.17;;;11.32;;
23990;SDS011;12205;50.600;4.608;2023-11-21T01:36:36;36.85;;;11.60;;
23990;SDS011;12205;50.600;4.608;2023-11-21T01:39:04;32.67;;;10.07;;
23990;SDS011;12205;50.600;4.608;2023-11-21T01:41:33;37.10;;;10.95;;
23990;SDS011;12205;50.600;4.608;2023-11-21T01:44:02;36.60;;;11.18;;
23990;SDS011;12205;50.600;4.608;2023-11-21T01:46:32;33.80;;;10.35;;
23990;SDS011;12205;50.600;4.608;2023-11-21T01:49:00;31.90;;;10.10;;
23990;SDS011;12205;50.600;4.608;2023-11-21T01:51:27;35.92;;;9.70;;
23990;SDS011;12205;50.600;4.608;2023-11-21T01:53:54;32.17;;;9.90;;
23990;SDS011;12205;50.600;4.608;2023-11-21T01:56:23;34.55;;;10.27;;
23990;SDS011;12205;50.600;4.608;2023-11-21T01:58:51;37.20;;;10.23;;
23990;SDS011;12205;50.600;4.608;2023-11-21T02:01:19;31.70;;;10.05;;
23990;SDS011;12205;50.600;4.608;2023-11-21T02:03:46;27.08;;;9.05;;
23990;SDS011;12205;50.600;4.608;2023-11-21T02:06:13;33.55;;;10.05;;
23990;SDS011;12205;50.600;4.608;2023-11-21T02:08:40;33.95;;;10.48;;
23990;SDS011;12205;50.600;4.608;2023-11-21T02:11:10;32.58;;;9.77;;
23990;SDS011;12205;50.600;4.608;2023-11-21T02:13:40;27.75;;;9.20;;
23990;SDS011;12205;50.600;4.608;2023-11-21T02:16:08;38.03;;;9.85;;
23990;SDS011;12205;50.600;4.608;2023-11-21T02:18:37;37.92;;;10.55;;
23990;SDS011;12205;50.600;4.608;2023-11-21T02:21:05;33.33;;;10.05;;
23990;SDS011;12205;50.600;4.608;2023-11-21T02:23:36;29.48;;;9.65;;
23990;SDS011;12205;50.600;4.608;2023-11-21T02:26:07;27.42;;;8.88;;
23990;SDS011;12205;50.600;4.608;2023-11-21T02:28:35;29.55;;;9.60;;
23990;SDS011;12205;50.600;4.608;2023-11-21T02:31:04;35.40;;;10.45;;
23990;SDS011;12205;50.600;4.608;2023-11-21T02:33:33;27.63;;;9.00;;
23990;SDS011;12205;50.600;4.608;2023-11-21T02:36:00;28.88;;;9.52;;
23990;SDS011;12205;50.600;4.608;2023-11-21T02:38:28;33.08;;;9.20;;
23990;SDS011;12205;50.600;4.608;2023-11-21T02:40:57;31.08;;;9.98;;
23990;SDS011;12205;50.600;4.608;2023-11-21T02:43:24;33.88;;;10.07;;
23990;SDS011;12205;50.600;4.608;2023-11-21T02:45:51;33.22;;;9.32;;
23990;SDS011;12205;50.600;4.608;2023-11-21T02:48:18;28.80;;;9.10;;
23990;SDS011;12205;50.600;4.608;2023-11-21T02:50:46;31.58;;;9.50;;
23990;SDS011;12205;50.600;4.608;2023-11-21T02:53:13;31.75;;;9.88;;
23990;SDS011;12205;50.600;4.608;2023-11-21T02:55:41;36.22;;;11.52;;
23990;SDS011;12205;50.600;4.608;2023-11-21T02:58:09;35.20;;;11.07;;
23990;SDS011;12205;50.600;4.608;2023-11-21T03:00:36;33.20;;;10.02;;
23990;SDS011;12205;50.600;4.608;2023-11-21T03:03:07;35.45;;;10.65;;
23990;SDS011;12205;50.600;4.608;2023-11-21T03:05:34;41.97;;;11.38;;
23990;SDS011;12205;50.600;4.608;2023-11-21T03:08:02;44.17;;;11.70;;
23990;SDS011;12205;50.600;4.608;2023-11-21T03:10:30;34.10;;;10.63;;
23990;SDS011;12205;50.600;4.608;2023-11-21T03:12:58;41.88;;;11.15;;
23990;SDS011;12205;50.600;4.608;2023-11-21T03:15:26;41.00;;;11.07;;
23990;SDS011;12205;50.600;4.608;2023-11-21T03:17:53;34.80;;;10.50;;
23990;SDS011;12205;50.600;4.608;2023-11-21T03:20:21;37.60;;;10.40;;
23990;SDS011;12205;50.600;4.608;2023-11-21T03:22:48;31.42;;;9.35;;
23990;SDS011;12205;50.600;4.608;2023-11-21T03:25:15;33.28;;;10.90;;
23990;SDS011;12205;50.600;4.608;2023-11-21T03:27:43;29.25;;;9.70;;
23990;SDS011;12205;50.600;4.608;2023-11-21T03:30:10;30.25;;;9.73;;
23990;SDS011;12205;50.600;4.608;2023-11-21T03:32:39;35.08;;;10.23;;
23990;SDS011;12205;50.600;4.608;2023-11-21T03:35:07;31.63;;;9.80;;
23990;SDS011;12205;50.600;4.608;2023-11-21T03:37:34;30.17;;;9.18;;
23990;SDS011;12205;50.600;4.608;2023-11-21T03:40:03;35.53;;;10.30;;
23990;SDS011;12205;50.600;4.608;2023-11-21T03:42:33;27.35;;;9.30;;
23990;SDS011;12205;50.600;4.608;2023-11-21T03:45:00;32.10;;;10.13;;
23990;SDS011;12205;50.600;4.608;2023-11-21T03:47:29;33.08;;;10.45;;
23990;SDS011;12205;50.600;4.608;2023-11-21T03:49:57;30.30;;;9.68;;
23990;SDS011;12205;50.600;4.608;2023-11-21T03:52:25;31.05;;;9.90;;
23990;SDS011;12205;50.600;4.608;2023-11-21T03:54:52;29.77;;;9.70;;
23990;SDS011;12205;50.600;4.608;2023-11-21T03:57:20;31.05;;;9.77;;
23990;SDS011;12205;50.600;4.608;2023-11-21T03:59:47;27.00;;;9.48;;
23990;SDS011;12205;50.600;4.608;2023-11-21T04:02:14;35.05;;;9.88;;
23990;SDS011;12205;50.600;4.608;2023-11-21T04:04:42;37.78;;;10.65;;
23990;SDS011;12205;50.600;4.608;2023-11-21T04:07:10;28.15;;;9.68;;
23990;SDS011;12205;50.600;4.608;2023-11-21T04:09:38;37.00;;;10.70;;
23990;SDS011;12205;50.600;4.608;2023-11-21T04:12:06;35.90;;;10.63;;
23990;SDS011;12205;50.600;4.608;2023-11-21T04:14:35;34.22;;;10.48;;
23990;SDS011;12205;50.600;4.608;2023-11-21T04:17:02;34.83;;;10.65;;
23990;SDS011;12205;50.600;4.608;2023-11-21T04:19:30;29.92;;;9.82;;
23990;SDS011;12205;50.600;4.608;2023-11-21T04:21:57;33.25;;;11.10;;
23990;SDS011;12205;50.600;4.608;2023-11-21T04:24:25;31.35;;;10.20;;
23990;SDS011;12205;50.600;4.608;2023-11-21T04:26:53;34.45;;;10.18;;
23990;SDS011;12205;50.600;4.608;2023-11-21T04:29:20;35.22;;;10.82;;
23990;SDS011;12205;50.600;4.608;2023-11-21T04:31:47;34.95;;;10.63;;
23990;SDS011;12205;50.600;4.608;2023-11-21T04:34:15;35.20;;;11.00;;
23990;SDS011;12205;50.600;4.608;2023-11-21T04:36:42;37.70;;;10.75;;
23990;SDS011;12205;50.600;4.608;2023-11-21T04:39:10;31.05;;;10.27;;
23990;SDS011;12205;50.600;4.608;2023-11-21T04:41:39;35.97;;;11.15;;
23990;SDS011;12205;50.600;4.608;2023-11-21T04:44:06;35.38;;;10.80;;
23990;SDS011;12205;50.600;4.608;2023-11-21T04:46:33;34.58;;;10.55;;
23990;SDS011;12205;50.600;4.608;2023-11-21T04:49:00;45.38;;;11.43;;
23990;SDS011;12205;50.600;4.608;2023-11-21T04:51:27;33.65;;;11.00;;
23990;SDS011;12205;50.600;4.608;2023-11-21T04:53:55;34.08;;;11.15;;
23990;SDS011;12205;50.600;4.608;2023-11-21T04:56:22;32.97;;;11.00;;
23990;SDS011;12205;50.600;4.608;2023-11-21T04:58:51;33.95;;;11.05;;
23990;SDS011;12205;50.600;4.608;2023-11-21T05:01:20;41.97;;;11.93;;
23990;SDS011;12205;50.600;4.608;2023-11-21T05:03:47;34.75;;;10.60;;
23990;SDS011;12205;50.600;4.608;2023-11-21T05:06:14;46.72;;;12.18;;
23990;SDS011;12205;50.600;4.608;2023-11-21T05:08:41;40.92;;;11.98;;
23990;SDS011;12205;50.600;4.608;2023-11-21T05:11:08;39.75;;;11.70;;
23990;SDS011;12205;50.600;4.608;2023-11-21T05:13:35;33.33;;;10.75;;
23990;SDS011;12205;50.600;4.608;2023-11-21T05:16:05;39.92;;;11.65;;
23990;SDS011;12205;50.600;4.608;2023-11-21T05:18:33;40.10;;;12.05;;
23990;SDS011;12205;50.600;4.608;2023-11-21T05:21:00;34.60;;;10.90;;
23990;SDS011;12205;50.600;4.608;2023-11-21T05:23:28;41.45;;;11.18;;
23990;SDS011;12205;50.600;4.608;2023-11-21T05:25:55;35.95;;;11.40;;
23990;SDS011;12205;50.600;4.608;2023-11-21T05:28:22;41.25;;;11.73;;
23990;SDS011;12205;50.600;4.608;2023-11-21T05:30:50;32.83;;;11.07;;
23990;SDS011;12205;50.600;4.608;2023-11-21T05:33:19;37.65;;;11.02;;
23990;SDS011;12205;50.600;4.608;2023-11-21T05:35:46;32.75;;;11.70;;
23990;SDS011;12205;50.600;4.608;2023-11-21T05:38:14;32.17;;;10.73;;
23990;SDS011;12205;50.600;4.608;2023-11-21T05:40:41;31.08;;;10.40;;
23990;SDS011;12205;50.600;4.608;2023-11-21T05:43:08;34.10;;;10.98;;
23990;SDS011;12205;50.600;4.608;2023-11-21T05:45:36;37.28;;;9.98;;
23990;SDS011;12205;50.600;4.608;2023-11-21T05:48:03;29.20;;;9.65;;
23990;SDS011;12205;50.600;4.608;2023-11-21T05:50:32;34.53;;;10.63;;
23990;SDS011;12205;50.600;4.608;2023-11-21T05:53:00;33.45;;;9.77;;
23990;SDS011;12205;50.600;4.608;2023-11-21T05:55:27;28.48;;;10.00;;
23990;SDS011;12205;50.600;4.608;2023-11-21T05:57:54;27.90;;;9.52;;
23990;SDS011;12205;50.600;4.608;2023-11-21T06:00:22;30.77;;;9.77;;
23990;SDS011;12205;50.600;4.608;2023-11-21T06:02:50;34.88;;;10.43;;
23990;SDS011;12205;50.600;4.608;2023-11-21T06:05:19;37.65;;;10.02;;
23990;SDS011;12205;50.600;4.608;2023-11-21T06:07:50;30.23;;;10.25;;
23990;SDS011;12205;50.600;4.608;2023-11-21T06:10:19;30.40;;;9.52;;
23990;SDS011;12205;50.600;4.608;2023-11-21T06:12:48;31.33;;;9.93;;
23990;SDS011;12205;50.600;4.608;2023-11-21T06:15:16;27.98;;;9.40;;
23990;SDS011;12205;50.600;4.608;2023-11-21T06:17:44;29.70;;;9.73;;
23990;SDS011;12205;50.600;4.608;2023-11-21T06:20:14;28.50;;;9.63;;
23990;SDS011;12205;50.600;4.608;2023-11-21T06:22:44;29.23;;;9.13;;
23990;SDS011;12205;50.600;4.608;2023-11-21T06:25:15;33.20;;;9.88;;
23990;SDS011;12205;50.600;4.608;2023-11-21T06:27:43;28.83;;;9.27;;
23990;SDS011;12205;50.600;4.608;2023-11-21T06:30:12;28.67;;;9.40;;
23990;SDS011;12205;50.600;4.608;2023-11-21T06:32:41;31.90;;;9.40;;
23990;SDS011;12205;50.600;4.608;2023-11-21T06:35:10;27.15;;;9.48;;
23990;SDS011;12205;50.600;4.608;2023-11-21T06:37:38;26.17;;;9.65;;
23990;SDS011;12205;50.600;4.608;2023-11-21T06:40:06;29.58;;;9.50;;
23990;SDS011;12205;50.600;4.608;2023-11-21T06:42:44;30.13;;;9.43;;
23990;SDS011;12205;50.600;4.608;2023-11-21T06:45:12;26.30;;;9.55;;
23990;SDS011;12205;50.600;4.608;2023-11-21T06:47:40;32.03;;;10.77;;
23990;SDS011;12205;50.600;4.608;2023-11-21T06:50:08;35.63;;;10.07;;
23990;SDS011;12205;50.600;4.608;2023-11-21T06:52:36;24.52;;;8.63;;
23990;SDS011;12205;50.600;4.608;2023-11-21T06:55:03;34.03;;;9.38;;
23990;SDS011;12205;50.600;4.608;2023-11-21T06:57:33;24.60;;;9.32;;
23990;SDS011;12205;50.600;4.608;2023-11-21T07:00:02;36.78;;;10.35;;
23990;SDS011;12205;50.600;4.608;2023-11-21T07:02:34;28.13;;;9.27;;
23990;SDS011;12205;50.600;4.608;2023-11-21T07:05:01;31.75;;;9.75;;
23990;SDS011;12205;50.600;4.608;2023-11-21T07:07:28;32.95;;;10.05;;
23990;SDS011;12205;50.600;4.608;2023-11-21T07:09:56;27.98;;;9.27;;
23990;SDS011;12205;50.600;4.608;2023-11-21T07:12:28;28.35;;;9.25;;
23990;SDS011;12205;50.600;4.608;2023-11-21T07:14:56;30.88;;;9.63;;
23990;SDS011;12205;50.600;4.608;2023-11-21T07:17:25;28.77;;;9.40;;
23990;SDS011;12205;50.600;4.608;2023-11-21T07:19:52;31.75;;;10.32;;
23990;SDS011;12205;50.600;4.608;2023-11-21T07:22:20;33.22;;;9.70;;
23990;SDS011;12205;50.600;4.608;2023-11-21T07:24:48;29.30;;;9.43;;
23990;SDS011;12205;50.600;4.608;2023-11-21T07:27:17;27.80;;;9.38;;
23990;SDS011;12205;50.600;4.608;2023-11-21T07:29:44;28.35;;;9.50;;
23990;SDS011;12205;50.600;4.608;2023-11-21T07:32:13;36.38;;;9.98;;
23990;SDS011;12205;50.600;4.608;2023-11-21T07:34:42;29.52;;;10.48;;
23990;SDS011;12205;50.600;4.608;2023-11-21T07:37:09;32.92;;;10.05;;
23990;SDS011;12205;50.600;4.608;2023-11-21T07:39:37;28.80;;;9.73;;
23990;SDS011;12205;50.600;4.608;2023-11-21T07:42:07;34.40;;;10.65;;
23990;SDS011;12205;50.600;4.608;2023-11-21T07:44:36;27.88;;;9.48;;
23990;SDS011;12205;50.600;4.608;2023-11-21T07:47:11;24.33;;;9.30;;
23990;SDS011;12205;50.600;4.608;2023-11-21T07:49:38;25.40;;;9.23;;
23990;SDS011;12205;50.600;4.608;2023-11-21T07:52:09;26.13;;;9.02;;
23990;SDS011;12205;50.600;4.608;2023-11-21T07:54:36;27.67;;;9.45;;
23990;SDS011;12205;50.600;4.608;2023-11-21T07:57:03;26.58;;;9.00;;
23990;SDS011;12205;50.600;4.608;2023-11-21T07:59:31;25.65;;;9.35;;
23990;SDS011;12205;50.600;4.608;2023-11-21T08:01:58;27.92;;;9.07;;
23990;SDS011;12205;50.600;4.608;2023-11-21T08:04:25;30.15;;;9.65;;
23990;SDS011;12205;50.600;4.608;2023-11-21T08:06:52;24.70;;;8.77;;
23990;SDS011;12205;50.600;4.608;2023-11-21T08:09:21;29.80;;;10.35;;
23990;SDS011;12205;50.600;4.608;2023-11-21T08:11:48;22.30;;;8.10;;
23990;SDS011;12205;50.600;4.608;2023-11-21T08:14:17;26.92;;;8.90;;
23990;SDS011;12205;50.600;4.608;2023-11-21T08:16:45;26.98;;;8.88;;
23990;SDS011;12205;50.600;4.608;2023-11-21T08:19:13;23.98;;;8.80;;
23990;SDS011;12205;50.600;4.608;2023-11-21T08:21:41;23.92;;;8.80;;
23990;SDS011;12205;50.600;4.608;2023-11-21T08:24:08;28.55;;;9.23;;
23990;SDS011;12205;50.600;4.608;2023-11-21T08:26:38;28.20;;;9.73;;
23990;SDS011;12205;50.600;4.608;2023-11-21T08:29:05;25.52;;;8.63;;
23990;SDS011;12205;50.600;4.608;2023-11-21T08:31:33;29.48;;;9.68;;
23990;SDS011;12205;50.600;4.608;2023-11-21T08:34:01;30.63;;;9.73;;
23990;SDS011;12205;50.600;4.608;2023-11-21T08:36:40;31.67;;;9.75;;
23990;SDS011;12205;50.600;4.608;2023-11-21T08:39:09;28.88;;;8.73;;
23990;SDS011;12205;50.600;4.608;2023-11-21T08:41:37;29.20;;;9.38;;
23990;SDS011;12205;50.600;4.608;2023-11-21T08:44:05;29.92;;;9.65;;
23990;SDS011;12205;50.600;4.608;2023-11-21T08:46:32;29.38;;;9.77;;
23990;SDS011;12205;50.600;4.608;2023-11-21T08:49:01;32.25;;;9.88;;
23990;SDS011;12205;50.600;4.608;2023-11-21T08:51:29;32.28;;;9.95;;
23990;SDS011;12205;50.600;4.608;2023-11-21T08:53:56;28.08;;;9.65;;
23990;SDS011;12205;50.600;4.608;2023-11-21T08:56:26;24.73;;;9.30;;
23990;SDS011;12205;50.600;4.608;2023-11-21T08:58:54;27.25;;;9.68;;
23990;SDS011;12205;50.600;4.608;2023-11-21T09:01:22;26.20;;;8.52;;
23990;SDS011;12205;50.600;4.608;2023-11-21T09:03:50;27.05;;;8.52;;
23990;SDS011;12205;50.600;4.608;2023-11-21T09:06:17;29.00;;;9.55;;
23990;SDS011;12205;50.600;4.608;2023-11-21T09:08:44;26.02;;;9.35;;
23990;SDS011;12205;50.600;4.608;2023-11-21T09:11:11;32.88;;;9.43;;
23990;SDS011;12205;50.600;4.608;2023-11-21T09:13:38;30.35;;;9.40;;
23990;SDS011;12205;50.600;4.608;2023-11-21T09:16:07;37.63;;;10.63;;
23990;SDS011;12205;50.600;4.608;2023-11-21T09:18:36;30.15;;;9.32;;
23990;SDS011;12205;50.600;4.608;2023-11-21T09:21:03;30.13;;;9.90;;
23990;SDS011;12205;50.600;4.608;2023-11-21T09:23:31;34.03;;;10.07;;
23990;SDS011;12205;50.600;4.608;2023-11-21T09:25:58;30.05;;;10.02;;
23990;SDS011;12205;50.600;4.608;2023-11-21T09:28:26;33.65;;;9.85;;
23990;SDS011;12205;50.600;4.608;2023-11-21T09:30:53;33.88;;;10.00;;
23990;SDS011;12205;50.600;4.608;2023-11-21T09:33:22;33.20;;;10.27;;
23990;SDS011;12205;50.600;4.608;2023-11-21T09:35:50;28.95;;;9.68;;
23990;SDS011;12205;50.600;4.608;2023-11-21T09:38:17;28.58;;;9.25;;
23990;SDS011;12205;50.600;4.608;2023-11-21T09:40:44;31.48;;;9.57;;
23990;SDS011;12205;50.600;4.608;2023-11-21T09:43:14;35.97;;;9.70;;
23990;SDS011;12205;50.600;4.608;2023-11-21T09:45:44;31.05;;;9.77;;
23990;SDS011;12205;50.600;4.608;2023-11-21T09:48:13;33.22;;;9.73;;
23990;SDS011;12205;50.600;4.608;2023-11-21T09:50:43;31.98;;;9.85;;
23990;SDS011;12205;50.600;4.608;2023-11-21T09:53:13;30.83;;;9.65;;
23990;SDS011;12205;50.600;4.608;2023-11-21T09:55:46;35.20;;;9.30;;
23990;SDS011;12205;50.600;4.608;2023-11-21T09:58:16;29.77;;;9.00;;
23990;SDS011;12205;50.600;4.608;2023-11-21T10:00:46;32.00;;;8.75;;
23990;SDS011;12205;50.600;4.608;2023-11-21T10:03:14;31.02;;;9.90;;
23990;SDS011;12205;50.600;4.608;2023-11-21T10:05:44;34.25;;;10.10;;
23990;SDS011;12205;50.600;4.608;2023-11-21T10:08:12;34.85;;;9.82;;
23990;SDS011;12205;50.600;4.608;2023-11-21T10:10:42;26.52;;;8.75;;
23990;SDS011;12205;50.600;4.608;2023-11-21T10:13:11;28.27;;;9.07;;
23990;SDS011;12205;50.600;4.608;2023-11-21T10:15:41;26.70;;;8.40;;
23990;SDS011;12205;50.600;4.608;2023-11-21T10:18:13;37.17;;;9.85;;
23990;SDS011;12205;50.600;4.608;2023-11-21T10:20:44;31.80;;;9.18;;
23990;SDS011;12205;50.600;4.608;2023-11-21T10:23:17;35.50;;;10.10;;
23990;SDS011;12205;50.600;4.608;2023-11-21T10:25:46;27.55;;;9.27;;
23990;SDS011;12205;50.600;4.608;2023-11-21T10:28:13;33.00;;;9.48;;
23990;SDS011;12205;50.600;4.608;2023-11-21T10:30:39;32.08;;;9.40;;
23990;SDS011;12205;50.600;4.608;2023-11-21T10:33:07;33.03;;;9.38;;
23990;SDS011;12205;50.600;4.608;2023-11-21T10:35:39;38.22;;;10.45;;
23990;SDS011;12205;50.600;4.608;2023-11-21T10:38:16;32.47;;;8.55;;
23990;SDS011;12205;50.600;4.608;2023-11-21T10:40:46;30.70;;;8.93;;
23990;SDS011;12205;50.600;4.608;2023-11-21T10:43:14;36.70;;;10.35;;
23990;SDS011;12205;50.600;4.608;2023-11-21T10:45:42;31.50;;;9.07;;
23990;SDS011;12205;50.600;4.608;2023-11-21T10:48:10;33.60;;;9.98;;
23990;SDS011;12205;50.600;4.608;2023-11-21T10:50:41;36.88;;;10.45;;
23990;SDS011;12205;50.600;4.608;2023-11-21T10:53:11;32.30;;;10.25;;
23990;SDS011;12205;50.600;4.608;2023-11-21T10:55:38;37.13;;;10.30;;
23990;SDS011;12205;50.600;4.608;2023-11-21T10:58:06;38.40;;;10.25;;
23990;SDS011;12205;50.600;4.608;2023-11-21T11:00:36;38.00;;;10.02;;
23990;SDS011;12205;50.600;4.608;2023-11-21T11:03:05;33.65;;;9.02;;
23990;SDS011;12205;50.600;4.608;2023-11-21T11:05:38;26.95;;;8.10;;
23990;SDS011;12205;50.600;4.608;2023-11-21T11:08:16;24.38;;;7.45;;
23990;SDS011;12205;50.600;4.608;2023-11-21T11:10:51;26.65;;;9.07;;
23990;SDS011;12205;50.600;4.608;2023-11-21T11:13:19;28.83;;;8.35;;
23990;SDS011;12205;50.600;4.608;2023-11-21T11:15:47;25.60;;;8.00;;
23990;SDS011;12205;50.600;4.608;2023-11-21T11:18:15;30.60;;;8.00;;
23990;SDS011;12205;50.600;4.608;2023-11-21T11:20:43;26.50;;;8.05;;
23990;SDS011;12205;50.600;4.608;2023-11-21T11:23:20;24.50;;;7.72;;
23990;SDS011;12205;50.600;4.608;2023-11-21T11:26:09;33.35;;;9.10;;
23990;SDS011;12205;50.600;4.608;2023-11-21T11:28:56;24.08;;;7.10;;
23990;SDS011;12205;50.600;4.608;2023-11-21T11:31:37;21.38;;;6.53;;
23990;SDS011;12205;50.600;4.608;2023-11-21T11:34:19;25.52;;;7.65;;
23990;SDS011;12205;50.600;4.608;2023-11-21T11:37:07;22.85;;;6.90;;
23990;SDS011;12205;50.600;4.608;2023-11-21T11:39:37;26.63;;;7.28;;
23990;SDS011;12205;50.600;4.608;2023-11-21T11:42:07;23.70;;;7.27;;
23990;SDS011;12205;50.600;4.608;2023-11-21T11:44:48;23.27;;;7.47;;
23990;SDS011;12205;50.600;4.608;2023-11-21T11:47:21;22.02;;;7.55;;
23990;SDS011;12205;50.600;4.608;2023-11-21T11:49:56;23.67;;;7.90;;
23990;SDS011;12205;50.600;4.608;2023-11-21T11:52:34;30.95;;;8.93;;
23990;SDS011;12205;50.600;4.608;2023-11-21T11:55:04;24.80;;;8.00;;
23990;SDS011;12205;50.600;4.608;2023-11-21T11:57:35;26.75;;;8.00;;
23990;SDS011;12205;50.600;4.608;2023-11-21T12:00:06;23.45;;;7.88;;
23990;SDS011;12205;50.600;4.608;2023-11-21T12:02:42;23.73;;;7.63;;
23990;SDS011;12205;50.600;4.608;2023-11-21T12:05:13;27.85;;;8.30;;
23990;SDS011;12205;50.600;4.608;2023-11-21T12:07:46;22.02;;;7.15;;
23990;SDS011;12205;50.600;4.608;2023-11-21T12:10:18;25.52;;;7.85;;
23990;SDS011;12205;50.600;4.608;2023-11-21T12:12:48;25.30;;;8.32;;
23990;SDS011;12205;50.600;4.608;2023-11-21T12:15:18;23.17;;;7.25;;
23990;SDS011;12205;50.600;4.608;2023-11-21T12:17:46;24.02;;;7.95;;
23990;SDS011;12205;50.600;4.608;2023-11-21T12:20:15;20.35;;;6.95;;
23990;SDS011;12205;50.600;4.608;2023-11-21T12:22:47;19.95;;;7.00;;
23990;SDS011;12205;50.600;4.608;2023-11-21T12:25:15;22.95;;;7.32;;
23990;SDS011;12205;50.600;4.608;2023-11-21T12:27:45;24.70;;;7.53;;
23990;SDS011;12205;50.600;4.608;2023-11-21T12:30:14;18.85;;;6.78;;
23990;SDS011;12205;50.600;4.608;2023-11-21T12:32:44;20.05;;;6.72;;
23990;SDS011;12205;50.600;4.608;2023-11-21T12:35:14;17.95;;;6.60;;
23990;SDS011;12205;50.600;4.608;2023-11-21T12:37:44;19.13;;;6.78;;
23990;SDS011;12205;50.600;4.608;2023-11-21T12:40:14;21.58;;;7.15;;
23990;SDS011;12205;50.600;4.608;2023-11-21T12:42:43;21.88;;;7.43;;
23990;SDS011;12205;50.600;4.608;2023-11-21T12:45:20;23.95;;;7.32;;
23990;SDS011;12205;50.600;4.608;2023-11-21T12:47:51;19.50;;;6.78;;
23990;SDS011;12205;50.600;4.608;2023-11-21T12:50:22;17.58;;;6.40;;
23990;SDS011;12205;50.600;4.608;2023-11-21T12:52:58;19.88;;;6.32;;
23990;SDS011;12205;50.600;4.608;2023-11-21T12:55:29;19.95;;;5.88;;
23990;SDS011;12205;50.600;4.608;2023-11-21T12:57:59;22.05;;;6.78;;
23990;SDS011;12205;50.600;4.608;2023-11-21T13:00:34;21.83;;;6.55;;
23990;SDS011;12205;50.600;4.608;2023-11-21T13:03:04;18.80;;;6.53;;
23990;SDS011;12205;50.600;4.608;2023-11-21T13:05:34;18.27;;;6.13;;
23990;SDS011;12205;50.600;4.608;2023-11-21T13:08:06;19.33;;;6.28;;
23990;SDS011;12205;50.600;4.608;2023-11-21T13:10:37;21.42;;;6.40;;
23990;SDS011;12205;50.600;4.608;2023-11-21T13:13:09;20.52;;;6.00;;
23990;SDS011;12205;50.600;4.608;2023-11-21T13:15:46;18.30;;;5.60;;
23990;SDS011;12205;50.600;4.608;2023-11-21T13:18:15;20.08;;;5.82;;
23990;SDS011;12205;50.600;4.608;2023-11-21T13:20:43;21.52;;;6.13;;
23990;SDS011;12205;50.600;4.608;2023-11-21T13:23:13;18.40;;;5.80;;
23990;SDS011;12205;50.600;4.608;2023-11-21T13:25:41;16.50;;;5.60;;
23990;SDS011;12205;50.600;4.608;2023-11-21T13:28:10;18.92;;;5.88;;
23990;SDS011;12205;50.600;4.608;2023-11-21T13:30:40;19.27;;;6.40;;
23990;SDS011;12205;50.600;4.608;2023-11-21T13:33:09;18.70;;;5.82;;
23990;SDS011;12205;50.600;4.608;2023-11-21T13:35:43;17.17;;;5.90;;
23990;SDS011;12205;50.600;4.608;2023-11-21T13:38:15;16.75;;;5.57;;
23990;SDS011;12205;50.600;4.608;2023-11-21T13:40:48;18.48;;;6.07;;
23990;SDS011;12205;50.600;4.608;2023-11-21T13:43:19;20.00;;;5.90;;
23990;SDS011;12205;50.600;4.608;2023-11-21T13:45:49;17.50;;;5.50;;
23990;SDS011;12205;50.600;4.608;2023-11-21T13:48:23;14.25;;;4.95;;
23990;SDS011;12205;50.600;4.608;2023-11-21T13:51:00;20.23;;;5.43;;
23990;SDS011;12205;50.600;4.608;2023-11-21T13:53:39;17.38;;;5.60;;
23990;SDS011;12205;50.600;4.608;2023-11-21T13:56:07;14.15;;;4.80;;
23990;SDS011;12205;50.600;4.608;2023-11-21T13:58:35;13.07;;;4.25;;
23990;SDS011;12205;50.600;4.608;2023-11-21T14:01:10;13.25;;;4.93;;
23990;SDS011;12205;50.600;4.608;2023-11-21T14:03:57;13.82;;;4.15;;
23990;SDS011;12205;50.600;4.608;2023-11-21T14:06:38;15.45;;;4.20;;
23990;SDS011;12205;50.600;4.608;2023-11-21T14:09:14;13.05;;;3.63;;
23990;SDS011;12205;50.600;4.608;2023-11-21T14:11:48;13.32;;;3.92;;
23990;SDS011;12205;50.600;4.608;2023-11-21T14:14:18;15.55;;;3.38;;
23990;SDS011;12205;50.600;4.608;2023-11-21T14:16:46;10.35;;;3.15;;
23990;SDS011;12205;50.600;4.608;2023-11-21T14:19:13;11.75;;;3.70;;
23990;SDS011;12205;50.600;4.608;2023-11-21T14:21:42;12.40;;;3.20;;
23990;SDS011;12205;50.600;4.608;2023-11-21T14:24:10;10.68;;;3.08;;
23990;SDS011;12205;50.600;4.608;2023-11-21T14:26:43;16.38;;;3.30;;
23990;SDS011;12205;50.600;4.608;2023-11-21T14:29:11;11.00;;;3.17;;
23990;SDS011;12205;50.600;4.608;2023-11-21T14:31:41;13.05;;;3.25;;
23990;SDS011;12205;50.600;4.608;2023-11-21T14:34:08;11.35;;;3.33;;
23990;SDS011;12205;50.600;4.608;2023-11-21T14:36:37;9.30;;;2.97;;
23990;SDS011;12205;50.600;4.608;2023-11-21T14:39:05;11.15;;;3.70;;
23990;SDS011;12205;50.600;4.608;2023-11-21T14:41:38;10.63;;;3.50;;